createdAt,value
2022-09-20T00:01:32.402Z,94.40
2022-09-20T00:04:02.253Z,94.40
2022-09-20T00:06:31.587Z,94.40
2022-09-20T00:08:59.701Z,94.30
2022-09-20T00:11:30.771Z,94.30
2022-09-20T00:14:01.450Z,94.30
2022-09-20T00:16:36.066Z,94.30
2022-09-20T00:19:05.302Z,94.40
2022-09-20T00:21:34.647Z,94.40
2022-09-20T00:24:02.213Z,94.50
2022-09-20T00:26:29.711Z,94.50
2022-09-20T00:28:58.436Z,94.60
2022-09-20T00:31:25.393Z,94.60
2022-09-20T00:34:16.993Z,94.50
2022-09-20T00:36:44.954Z,94.60
2022-09-20T00:39:15.011Z,94.50
2022-09-20T00:41:42.445Z,94.60
2022-09-20T00:44:44.082Z,94.50
2022-09-20T00:47:33.019Z,94.70
2022-09-20T00:50:39.614Z,94.60
2022-09-20T00:53:13.808Z,94.60
2022-09-20T00:55:52.616Z,94.60
2022-09-20T00:58:20.767Z,94.80
2022-09-20T01:00:50.251Z,94.70
2022-09-20T01:03:22.776Z,94.70
2022-09-20T01:05:52.066Z,94.80
2022-09-20T01:08:20.392Z,94.90
2022-09-20T01:10:47.434Z,94.80
2022-09-20T01:13:14.725Z,94.90
2022-09-20T01:15:44.584Z,94.90
2022-09-20T01:18:11.569Z,94.90
2022-09-20T01:20:43.868Z,94.90
2022-09-20T01:23:49.303Z,95.10
2022-09-20T01:26:40.396Z,95.30
2022-09-20T01:29:38.666Z,95.30
2022-09-20T01:32:14.158Z,95.20
2022-09-20T01:34:49.288Z,95.10
2022-09-20T01:37:27.235Z,95.20
2022-09-20T01:40:27.920Z,95.30
2022-09-20T01:43:26.401Z,95.50
2022-09-20T01:45:53.588Z,95.50
2022-09-20T01:48:35.719Z,95.40
2022-09-20T01:51:28.911Z,95.50
2022-09-20T01:54:30.461Z,95.50
2022-09-20T01:57:27.566Z,95.60
2022-09-20T02:00:21.751Z,95.50
2022-09-20T02:03:25.259Z,95.60
2022-09-20T02:06:26.379Z,95.50
2022-09-20T02:09:34.011Z,95.50
2022-09-20T02:12:52.203Z,95.60
2022-09-20T02:16:06.447Z,95.80
2022-09-20T02:19:20.745Z,95.60
2022-09-20T02:22:17.292Z,95.60
2022-09-20T02:25:12.394Z,95.50
2022-09-20T02:28:13.134Z,95.40
2022-09-20T02:31:08.559Z,95.30
2022-09-20T02:34:09.231Z,95.40
2022-09-20T02:36:41.124Z,95.30
2022-09-20T02:39:20.365Z,95.20
2022-09-20T02:42:01.494Z,95.30
2022-09-20T02:45:10.568Z,95.30
2022-09-20T02:47:43.492Z,95.50
2022-09-20T02:50:48.255Z,95.30
2022-09-20T02:53:43.618Z,95.40
2022-09-20T02:56:27.455Z,95.50
2022-09-20T02:59:24.710Z,95.30
2022-09-20T03:02:26.080Z,95.30
2022-09-20T03:05:17.351Z,95.50
2022-09-20T03:08:24.226Z,95.30
2022-09-20T03:11:21.876Z,95.60
2022-09-20T03:14:16.058Z,95.50
2022-09-20T03:17:06.820Z,95.80
2022-09-20T03:20:17.553Z,95.80
2022-09-20T03:23:41.051Z,95.90
2022-09-20T03:26:21.250Z,95.90
2022-09-20T03:29:09.463Z,95.70
2022-09-20T03:32:01.609Z,95.70
2022-09-20T03:34:46.737Z,95.80
2022-09-20T03:37:43.638Z,95.80
2022-09-20T03:40:46.898Z,95.90
2022-09-20T03:43:57.241Z,95.80
2022-09-20T03:46:45.308Z,95.90
2022-09-20T03:49:51.057Z,95.90
2022-09-20T03:52:45.420Z,96.00
2022-09-20T03:55:41.979Z,96.00
2022-09-20T03:58:36.402Z,96.10
2022-09-20T04:01:35.437Z,96.00
2022-09-20T04:04:20.093Z,96.10
2022-09-20T04:07:21.667Z,96.00
2022-09-20T04:10:15.951Z,96.00
2022-09-20T04:13:17.840Z,96.00
2022-09-20T04:16:06.589Z,96.00
2022-09-20T04:19:05.578Z,96.00
2022-09-20T04:21:58.986Z,95.80
2022-09-20T04:24:28.873Z,95.70
2022-09-20T04:27:29.908Z,95.70
2022-09-20T04:30:14.982Z,95.90
2022-09-20T04:33:01.164Z,95.90
2022-09-20T04:36:09.067Z,95.80
2022-09-20T04:38:36.539Z,95.90
2022-09-20T04:41:51.628Z,95.80
2022-09-20T04:44:52.655Z,95.90
2022-09-20T04:48:17.272Z,95.70
2022-09-20T04:51:29.294Z,95.90
2022-09-20T04:54:38.732Z,95.90
2022-09-20T04:58:01.488Z,95.90
2022-09-20T05:01:06.936Z,95.90
2022-09-20T05:04:36.823Z,95.70
2022-09-20T05:07:25.965Z,95.80
2022-09-20T05:10:34.025Z,95.80
2022-09-20T05:13:28.844Z,95.80
2022-09-20T05:16:08.839Z,95.70
2022-09-20T05:19:19.728Z,95.80
2022-09-20T05:22:17.408Z,95.70
2022-09-20T05:25:09.320Z,95.80
2022-09-20T05:28:15.277Z,95.90
2022-09-20T05:30:50.150Z,95.90
2022-09-20T05:33:53.199Z,95.90
2022-09-20T05:36:47.253Z,96.00
2022-09-20T05:39:40.752Z,96.00
2022-09-20T05:42:24.044Z,96.00
2022-09-20T05:45:23.708Z,96.20
2022-09-20T05:48:18.285Z,96.20
2022-09-20T05:51:20.580Z,96.30
2022-09-20T05:54:22.603Z,96.30
2022-09-20T05:57:06.632Z,96.40
2022-09-20T06:00:10.423Z,96.30
2022-09-20T06:03:18.580Z,96.50
2022-09-20T06:06:22.975Z,96.40
2022-09-20T06:09:18.996Z,96.50
2022-09-20T06:12:17.016Z,96.50
2022-09-20T06:15:15.684Z,96.60
2022-09-20T06:18:38.388Z,96.60
2022-09-20T06:21:22.997Z,96.60
2022-09-20T06:23:50.044Z,96.40
2022-09-20T06:26:23.607Z,96.30
2022-09-20T06:29:01.676Z,96.40
2022-09-20T06:31:28.681Z,96.40
2022-09-20T06:34:04.736Z,96.40
2022-09-20T06:36:53.852Z,96.60
2022-09-20T06:40:03.062Z,96.70
2022-09-20T06:42:30.199Z,96.90
2022-09-20T06:44:57.079Z,97.00
2022-09-20T06:47:23.965Z,97.00
2022-09-20T06:49:50.831Z,97.00
2022-09-20T06:52:20.601Z,97.10
2022-09-20T06:54:51.809Z,97.30
2022-09-20T06:57:24.994Z,97.40
2022-09-20T06:59:52.338Z,97.40
2022-09-20T07:02:19.252Z,97.50
2022-09-20T07:04:46.116Z,97.30
2022-09-20T07:07:18.963Z,97.30
2022-09-20T07:09:45.910Z,97.30
2022-09-20T07:12:12.809Z,97.20
2022-09-20T07:14:39.893Z,97.00
2022-09-20T07:17:07.526Z,96.90
2022-09-20T07:19:35.126Z,97.00
2022-09-20T07:22:02.089Z,97.00
2022-09-20T07:24:32.244Z,96.90
2022-09-20T07:27:04.243Z,96.90
2022-09-20T07:29:31.559Z,96.40
2022-09-20T07:31:58.725Z,96.10
2022-09-20T07:34:27.187Z,95.70
2022-09-20T07:36:54.095Z,95.30
2022-09-20T07:39:20.957Z,94.70
2022-09-20T07:41:51.142Z,94.60
2022-09-20T07:44:22.024Z,94.40
2022-09-20T07:46:51.394Z,94.30
2022-09-20T07:49:18.362Z,94.10
2022-09-20T07:51:45.742Z,94.10
2022-09-20T07:54:12.642Z,94.10
2022-09-20T07:56:39.999Z,94.10
2022-09-20T07:59:06.888Z,94.30
2022-09-20T08:01:33.868Z,94.10
2022-09-20T08:04:01.034Z,94.20
2022-09-20T08:06:27.949Z,94.40
2022-09-20T08:08:55.942Z,94.10
2022-09-20T08:11:27.784Z,94.00
2022-09-20T08:14:05.866Z,93.80
2022-09-20T08:16:43.194Z,93.80
2022-09-20T08:19:21.625Z,93.50
2022-09-20T08:21:50.770Z,93.60
2022-09-20T08:24:17.886Z,93.10
2022-09-20T08:26:45.157Z,92.80
2022-09-20T08:29:13.363Z,93.00
2022-09-20T08:31:42.299Z,92.70
2022-09-20T08:34:12.456Z,92.60
2022-09-20T08:36:45.401Z,92.60
2022-09-20T08:42:22.146Z,92.50
2022-09-20T08:44:59.168Z,92.60
2022-09-20T08:47:31.386Z,92.40
2022-09-20T08:49:59.396Z,91.60
2022-09-20T08:52:36.225Z,91.80
2022-09-20T08:55:18.034Z,92.10
2022-09-20T08:57:50.224Z,91.70
2022-09-20T09:00:24.429Z,91.50
2022-09-20T09:02:57.226Z,91.70
2022-09-20T09:05:46.998Z,91.40
2022-09-20T09:08:30.996Z,90.40
2022-09-20T09:11:04.684Z,90.60
2022-09-20T09:13:53.875Z,89.80
2022-09-20T09:16:34.478Z,89.30
2022-09-20T09:19:33.218Z,89.10
2022-09-20T09:22:03.038Z,88.70
2022-09-20T09:24:33.458Z,87.80
2022-09-20T09:27:29.730Z,87.70
2022-09-20T09:29:56.631Z,86.40
2022-09-20T09:32:31.091Z,86.70
2022-09-20T09:35:26.522Z,85.50
2022-09-20T09:38:02.070Z,86.20
2022-09-20T09:40:32.125Z,85.50
2022-09-20T09:43:02.616Z,84.10
2022-09-20T09:45:38.513Z,83.50
2022-09-20T09:48:26.251Z,83.50
2022-09-20T09:51:23.504Z,82.00
2022-09-20T09:53:51.296Z,82.60
2022-09-20T09:56:57.248Z,83.70
2022-09-20T10:00:18.048Z,83.60
2022-09-20T10:03:17.501Z,84.50
2022-09-20T10:06:01.811Z,85.70
2022-09-20T10:08:53.883Z,86.80
2022-09-20T10:12:01.536Z,87.70
2022-09-20T10:14:54.368Z,88.60
2022-09-20T10:18:08.512Z,89.20
2022-09-20T10:20:59.572Z,89.60
2022-09-20T10:24:03.334Z,89.80
2022-09-20T10:26:57.791Z,89.80
2022-09-20T10:29:59.531Z,89.00
2022-09-20T10:32:31.492Z,88.90
2022-09-20T10:35:26.607Z,88.20
2022-09-20T10:38:19.689Z,87.40
2022-09-20T10:41:28.639Z,87.40
2022-09-20T10:44:41.330Z,87.60
2022-09-20T10:47:20.133Z,85.10
2022-09-20T10:50:28.103Z,84.60
2022-09-20T10:53:16.998Z,84.20
2022-09-20T10:55:57.559Z,84.30
2022-09-20T10:58:52.005Z,83.70
2022-09-20T11:01:42.568Z,84.50
2022-09-20T11:05:11.339Z,83.10
2022-09-20T11:08:01.409Z,83.60
2022-09-20T11:10:39.102Z,76.60
2022-09-20T11:13:32.173Z,76.80
2022-09-20T11:16:19.541Z,77.20
2022-09-20T11:19:03.291Z,73.40
2022-09-20T11:21:51.081Z,73.70
2022-09-20T11:24:31.504Z,73.50
2022-09-20T11:27:06.033Z,71.30
2022-09-20T11:29:54.511Z,72.20
2022-09-20T11:32:31.778Z,73.20
2022-09-20T11:35:29.284Z,75.20
2022-09-20T11:38:23.168Z,75.90
2022-09-20T11:41:19.659Z,77.70
2022-09-20T11:43:47.843Z,78.10
2022-09-20T11:46:24.257Z,78.80
2022-09-20T11:49:02.194Z,77.80
2022-09-20T11:52:20.197Z,79.10
2022-09-20T11:55:11.971Z,80.80
2022-09-20T11:57:39.503Z,80.10
2022-09-20T12:00:08.930Z,80.30
2022-09-20T12:02:52.110Z,80.70
2022-09-20T12:05:37.990Z,80.70
2022-09-20T12:08:37.156Z,80.50
2022-09-20T12:11:10.676Z,78.70
2022-09-20T12:13:40.946Z,78.80
2022-09-20T12:16:35.952Z,79.40
2022-09-20T12:19:12.220Z,78.60
2022-09-20T12:22:04.225Z,79.20
2022-09-20T12:24:36.994Z,75.60
2022-09-20T12:27:27.528Z,75.10
2022-09-20T12:30:20.993Z,75.80
2022-09-20T12:32:55.158Z,75.70
2022-09-20T12:35:38.912Z,76.80
2022-09-20T12:38:34.329Z,75.50
2022-09-20T12:41:14.500Z,72.30
2022-09-20T12:44:07.080Z,72.90
2022-09-20T12:46:49.809Z,71.80
2022-09-20T12:49:55.795Z,72.30
2022-09-20T12:52:50.602Z,72.00
2022-09-20T12:55:31.709Z,72.00
2022-09-20T12:58:14.088Z,72.50
2022-09-20T13:01:14.378Z,74.00
2022-09-20T13:03:46.901Z,73.00
2022-09-20T13:06:19.324Z,73.00
2022-09-20T13:09:01.335Z,74.00
2022-09-20T13:11:53.878Z,73.10
2022-09-20T13:14:32.694Z,74.80
2022-09-20T13:17:27.259Z,74.00
2022-09-20T13:19:56.017Z,75.50
2022-09-20T13:22:37.012Z,76.10
2022-09-20T13:25:07.282Z,76.50
2022-09-20T13:27:40.688Z,77.00
2022-09-20T13:30:24.550Z,77.90
2022-09-20T13:32:51.921Z,79.10
2022-09-20T13:35:23.964Z,79.50
2022-09-20T13:37:56.543Z,78.80
2022-09-20T13:40:40.224Z,79.20
2022-09-20T13:43:28.488Z,78.90
2022-09-20T13:46:11.182Z,79.20
2022-09-20T13:48:38.766Z,79.20
2022-09-20T13:51:23.649Z,79.40
2022-09-20T13:53:50.552Z,80.60
2022-09-20T13:56:28.505Z,79.50
2022-09-20T13:58:58.789Z,79.90
2022-09-20T14:01:33.076Z,79.90
2022-09-20T14:04:14.549Z,79.40
2022-09-20T14:06:42.517Z,79.80
2022-09-20T14:09:38.669Z,80.00
2022-09-20T14:12:06.622Z,80.50
2022-09-20T14:14:35.026Z,80.80
2022-09-20T14:17:06.691Z,81.30
2022-09-20T14:19:40.785Z,81.70
2022-09-20T14:22:21.191Z,82.00
2022-09-20T14:25:25.476Z,82.60
2022-09-20T14:28:18.719Z,83.40
2022-09-20T14:30:47.277Z,83.70
2022-09-20T14:33:20.865Z,83.90
2022-09-20T14:35:52.224Z,84.20
2022-09-20T14:38:24.590Z,84.30
2022-09-20T14:40:52.315Z,84.50
2022-09-20T14:43:34.724Z,84.60
2022-09-20T14:46:16.560Z,85.00
2022-09-20T14:48:45.408Z,85.20
2022-09-20T14:51:18.740Z,85.30
2022-09-20T14:53:50.234Z,85.20
2022-09-20T14:56:30.719Z,85.10
2022-09-20T14:59:06.717Z,85.00
2022-09-20T15:01:36.180Z,85.50
2022-09-20T15:04:09.473Z,86.00
2022-09-20T15:06:40.128Z,86.10
2022-09-20T15:09:07.212Z,85.70
2022-09-20T15:11:34.164Z,85.50
2022-09-20T15:14:01.011Z,85.40
2022-09-20T15:16:29.076Z,85.20
2022-09-20T15:18:56.310Z,85.70
2022-09-20T15:21:23.822Z,86.10
2022-09-20T15:23:50.670Z,86.40
2022-09-20T15:26:20.760Z,86.20
2022-09-20T15:28:47.958Z,85.50
2022-09-20T15:31:16.866Z,85.70
2022-09-20T15:33:43.784Z,85.80
2022-09-20T15:36:11.083Z,86.10
2022-09-20T15:38:37.944Z,86.20
2022-09-20T15:41:04.834Z,86.20
2022-09-20T15:43:32.084Z,86.30
2022-09-20T15:46:06.653Z,86.40
2022-09-20T15:48:33.780Z,86.70
2022-09-20T15:51:08.533Z,86.50
2022-09-20T15:53:44.698Z,86.30
2022-09-20T15:56:33.099Z,86.10
2022-09-20T15:59:07.753Z,86.10
2022-09-20T16:01:41.066Z,86.00
2022-09-20T16:04:10.312Z,86.10
2022-09-20T16:06:39.164Z,86.20
2022-09-20T16:09:07.538Z,86.50
2022-09-20T16:11:34.792Z,86.80
2022-09-20T16:14:02.066Z,87.00
2022-09-20T16:16:35.043Z,87.30
2022-09-20T16:19:18.108Z,87.70
2022-09-20T16:21:58.819Z,87.90
2022-09-20T16:24:29.292Z,88.00
2022-09-20T16:26:57.654Z,87.80
2022-09-20T16:29:25.897Z,87.80
2022-09-20T16:31:54.476Z,87.80
2022-09-20T16:34:33.521Z,87.90
2022-09-20T16:37:05.922Z,88.20
2022-09-20T16:39:33.366Z,88.00
2022-09-20T16:42:06.386Z,88.20
2022-09-20T16:44:35.917Z,88.10
2022-09-20T16:47:08.976Z,88.60
2022-09-20T16:49:36.809Z,88.50
2022-09-20T16:52:09.119Z,88.80
2022-09-20T16:54:36.343Z,89.80
2022-09-20T16:57:03.374Z,89.20
2022-09-20T16:59:30.235Z,89.60
2022-09-20T17:01:57.295Z,89.70
2022-09-20T17:04:24.209Z,89.90
2022-09-20T17:06:51.782Z,89.90
2022-09-20T17:09:18.940Z,90.00
2022-09-20T17:11:50.003Z,89.90
2022-09-20T17:14:19.664Z,89.70
2022-09-20T17:16:48.063Z,89.10
2022-09-20T17:19:20.585Z,88.80
2022-09-20T17:21:50.089Z,88.50
2022-09-20T17:24:21.822Z,88.40
2022-09-20T17:26:50.682Z,88.20
2022-09-20T17:29:18.768Z,87.90
2022-09-20T17:31:53.980Z,87.90
2022-09-20T17:34:22.575Z,88.00
2022-09-20T17:36:50.725Z,87.90
2022-09-20T17:39:18.149Z,88.00
2022-09-20T17:41:47.620Z,88.20
2022-09-20T17:44:15.184Z,88.30
2022-09-20T17:46:53.975Z,88.40
2022-09-20T17:49:23.230Z,88.60
2022-09-20T17:51:52.990Z,88.60
2022-09-20T17:54:20.767Z,88.90
2022-09-20T17:56:53.265Z,89.10
2022-09-20T17:59:20.653Z,89.30
2022-09-20T18:01:51.862Z,89.30
2022-09-20T18:04:21.206Z,89.70
2022-09-20T18:06:53.567Z,89.80
2022-09-20T18:09:24.142Z,90.10
2022-09-20T18:11:53.880Z,90.10
2022-09-20T18:14:24.766Z,90.20
2022-09-20T18:16:53.477Z,90.40
2022-09-20T18:19:22.572Z,90.30
2022-09-20T18:21:49.852Z,90.40
2022-09-20T18:24:16.852Z,90.40
2022-09-20T18:26:44.509Z,90.40
2022-09-20T18:29:17.926Z,90.50
2022-09-20T18:31:50.843Z,90.50
2022-09-20T18:34:23.574Z,90.60
2022-09-20T18:36:53.791Z,90.70
2022-09-20T18:39:29.671Z,90.70
2022-09-20T18:41:57.277Z,90.80
2022-09-20T18:44:26.100Z,90.80
2022-09-20T18:46:55.169Z,90.90
2022-09-20T18:49:22.564Z,91.10
2022-09-20T18:51:49.952Z,91.00
2022-09-20T18:54:17.488Z,91.00
2022-09-20T18:56:47.420Z,91.10
2022-09-20T18:59:25.042Z,91.20
2022-09-20T19:01:55.023Z,91.20
2022-09-20T19:05:05.544Z,91.20
2022-09-20T19:08:23.867Z,91.50
2022-09-20T19:11:04.396Z,91.50
2022-09-20T19:13:57.927Z,91.50
2022-09-20T19:16:34.079Z,91.70
2022-09-20T19:19:35.973Z,91.70
2022-09-20T19:22:29.664Z,91.80
2022-09-20T19:25:40.638Z,91.90
2022-09-20T19:28:11.888Z,92.10
2022-09-20T19:30:41.873Z,91.80
2022-09-20T19:33:19.163Z,91.80
2022-09-20T19:35:50.325Z,91.90
2022-09-20T19:38:59.968Z,91.80
2022-09-20T19:41:54.490Z,92.10
2022-09-20T19:44:39.247Z,92.00
2022-09-20T19:47:25.452Z,92.00
2022-09-20T19:50:04.464Z,92.10
2022-09-20T19:52:31.621Z,92.00
2022-09-20T19:54:58.626Z,92.00
2022-09-20T19:57:47.115Z,92.00
2022-09-20T20:00:20.583Z,92.30
2022-09-20T20:02:48.592Z,92.10
2022-09-20T20:05:21.536Z,92.10
2022-09-20T20:07:50.965Z,92.20
2022-09-20T20:10:45.508Z,92.20
2022-09-20T20:13:56.659Z,92.40
2022-09-20T20:16:38.160Z,92.50
2022-09-20T20:19:19.107Z,92.30
2022-09-20T20:22:29.221Z,92.40
2022-09-20T20:24:56.838Z,92.50
2022-09-20T20:27:25.996Z,92.70
2022-09-20T20:29:52.866Z,92.50
2022-09-20T20:32:19.739Z,92.50
2022-09-20T20:34:46.896Z,92.60
2022-09-20T20:37:13.920Z,92.60
2022-09-20T20:39:40.786Z,92.70
2022-09-20T20:42:10.756Z,92.80
2022-09-20T20:44:37.744Z,92.80
2022-09-20T20:47:06.725Z,92.90
2022-09-20T20:49:33.754Z,92.90
2022-09-20T20:52:04.644Z,92.80
2022-09-20T20:54:32.554Z,92.90
2022-09-20T20:56:59.514Z,93.00
2022-09-20T20:59:26.705Z,93.00
2022-09-20T21:01:53.817Z,93.00
2022-09-20T21:04:21.625Z,93.00
2022-09-20T21:06:50.098Z,93.10
2022-09-20T21:09:17.016Z,93.10
2022-09-20T21:11:44.355Z,93.10
2022-09-20T21:14:12.680Z,93.00
2022-09-20T21:16:43.202Z,93.00
2022-09-20T21:19:15.015Z,92.90
2022-09-20T21:21:44.463Z,92.90
2022-09-20T21:24:15.214Z,92.90
2022-09-20T21:26:42.452Z,92.90
2022-09-20T21:29:14.663Z,92.90
2022-09-20T21:31:44.842Z,93.00
2022-09-20T21:34:13.791Z,93.00
2022-09-20T21:36:50.242Z,92.90
2022-09-20T21:39:17.099Z,93.30
2022-09-20T21:41:46.493Z,93.00
2022-09-20T21:44:14.881Z,93.00
2022-09-20T21:46:42.505Z,93.00
2022-09-20T21:49:12.213Z,92.90
2022-09-20T21:51:45.182Z,93.00
2022-09-20T21:54:12.082Z,93.00
2022-09-20T21:56:40.460Z,92.90
2022-09-20T21:59:07.839Z,93.00
2022-09-20T22:01:37.573Z,93.00
2022-09-20T22:04:12.356Z,93.10
2022-09-20T22:06:44.402Z,93.10
2022-09-20T22:09:14.903Z,93.00
2022-09-20T22:11:45.442Z,93.00
2022-09-20T22:14:14.109Z,93.10
2022-09-20T22:16:43.972Z,93.10
2022-09-20T22:19:13.849Z,93.10
2022-09-20T22:21:46.560Z,93.20
2022-09-20T22:24:14.874Z,93.30
2022-09-20T22:26:45.197Z,93.30
2022-09-20T22:29:12.124Z,93.30
2022-09-20T22:31:44.994Z,93.20
2022-09-20T22:34:19.411Z,93.30
2022-09-20T22:36:46.760Z,93.30
2022-09-20T22:39:14.788Z,93.30
2022-09-20T22:41:42.779Z,93.40
2022-09-20T22:44:10.432Z,93.40
2022-09-20T22:46:38.384Z,93.50
2022-09-20T22:49:06.713Z,93.50
2022-09-20T22:51:33.770Z,93.40
2022-09-20T22:54:08.690Z,93.40
2022-09-20T22:56:36.254Z,93.40
2022-09-20T22:59:12.511Z,93.30
2022-09-20T23:01:46.143Z,93.40
2022-09-20T23:04:19.413Z,93.30
2022-09-20T23:06:49.427Z,93.30
2022-09-20T23:09:17.979Z,93.30
2022-09-20T23:11:45.992Z,93.30
2022-09-20T23:14:18.438Z,93.40
2022-09-20T23:16:46.464Z,93.40
2022-09-20T23:19:14.022Z,93.50
2022-09-20T23:21:43.208Z,93.50
2022-09-20T23:24:12.303Z,93.90
2022-09-20T23:26:41.113Z,93.70
2022-09-20T23:29:11.974Z,93.70
2022-09-20T23:31:44.297Z,93.80
2022-09-20T23:34:13.030Z,93.80
2022-09-20T23:36:41.147Z,93.90
2022-09-20T23:39:09.453Z,94.00
2022-09-20T23:41:36.836Z,94.10
2022-09-20T23:44:06.435Z,94.20
2022-09-20T23:46:33.883Z,94.30
2022-09-20T23:49:00.803Z,94.30
2022-09-20T23:51:28.988Z,94.40
2022-09-20T23:53:56.167Z,94.30
2022-09-20T23:56:23.907Z,94.30
2022-09-20T23:58:51.180Z,94.30
